Milos — A8TH8 — position and weather

sailwx.info

Track history (hours):
 
Tides and Currents Weather Stations Pressure Air Temp Water Temp Dewpoint Dewpoint Depression Visibility Wind Speed Wind Dir Waves Ship Positions

Milos

Last reported at 2015-Dec-20 20:30 UTC. Time now 2016-Feb-09 01:32 UTC.
Position S 29°01' E 032°39'.
Warning: this ship's position is 50 days out of date.

Length 190 m; draft 6.8 m.

Type: Ship. MMSI: 636014358.

Date/timePositionNaut miles runAvg speedWind from/ knotsBaromVisibWave heightAir tempDewpointWater temp
2015-Dec-20 20:30S 29°01' E 032°39'12 9.4
2015-Dec-20 19:13S 29°09' E 032°29'19 9.0
2015-Dec-20 17:04S 29°21' E 032°12'5 8.6
2015-Dec-20 16:29S 29°24' E 032°07'8 8.3
2015-Dec-20 15:29S 29°29' E 031°59'7 7.8
2015-Dec-20 14:33S 29°33' E 031°52'9 9.2
2015-Dec-20 13:33S 29°37' E 031°43'1211.7
2015-Dec-20 12:33S 29°43' E 031°31'1211.9
2015-Dec-20 11:33S 29°49' E 031°19'1010.0
2015-Dec-20 10:33S 29°54' E 031°09'8 8.4
2015-Dec-20 09:33S 30°02' E 031°06'1212.2
2015-Dec-20 08:33S 30°14' E 031°05'9 8.9
2015-Dec-20 07:34S 30°23' E 031°04'369 8.4
2015-Dec-18 11:33S 34°33' E 025°42'42 9.7
2015-Dec-18 07:11S 34°40' E 024°52'  
Track history (hours):
 
Tides and Currents Weather Stations Pressure Air Temp Water Temp Dewpoint Dewpoint Depression Visibility Wind Speed Wind Dir Waves Ship Positions

Milos

Last reported at 2015-Dec-20 20:30 UTC. Time now 2016-Feb-09 01:32 UTC.
Position S 29°01' E 032°39'.
Warning: this ship's position is 50 days out of date.

Length 190 m; draft 6.8 m.

Type: Ship. MMSI: 636014358.

Date/timePositionNaut miles runAvg speedWind from/ knotsBaromVisibWave heightAir tempDewpointWater temp
2015-Dec-20 20:30S 29°01' E 032°39'12 9.4
2015-Dec-20 19:13S 29°09' E 032°29'19 9.0
2015-Dec-20 17:04S 29°21' E 032°12'5 8.6
2015-Dec-20 16:29S 29°24' E 032°07'8 8.3
2015-Dec-20 15:29S 29°29' E 031°59'7 7.8
2015-Dec-20 14:33S 29°33' E 031°52'9 9.2
2015-Dec-20 13:33S 29°37' E 031°43'1211.7
2015-Dec-20 12:33S 29°43' E 031°31'1211.9
2015-Dec-20 11:33S 29°49' E 031°19'1010.0
2015-Dec-20 10:33S 29°54' E 031°09'8 8.4
2015-Dec-20 09:33S 30°02' E 031°06'1212.2
2015-Dec-20 08:33S 30°14' E 031°05'9 8.9
2015-Dec-20 07:34S 30°23' E 031°04'369 8.4
2015-Dec-18 11:33S 34°33' E 025°42'42 9.7
2015-Dec-18 07:11S 34°40' E 024°52'  

Dump ship's entire track history